الصفحة الرئيسية
METAR-TAF:

METAR-TAF

مطار :

قاعدة ثول الجوية

Thule, جرينلاند

دائرة عرض: 76-32N, خط طول: 068-42W, ارتفاع: 77 متر

مراقبة الطقس الحالي

تاريخ ووقت الإصدار 37 دقيقة قبل الساعة 22:06UTC
ريح 8 عقدة من الغرب/الشمال الغربي
درجة الحرارة 1°درجة مئوية
الرطوبة 86%
ضغط 1001 hPa
الرؤية 10 كم أو أكثر
ملبد بالغيوم على ارتفاع 600 قدم

METAR: BGTL 242206Z AUTO 29008KT 9999 OVC006 01/M01 A2956 RMK AO2 SLP995 FZRANO TSNO $

زمن: 19:43 (22:43 UTC)

توقعات

تاريخ ووقت الإصدار 45ساعات و 43 دقيقة قبل الساعة 01:00UTC
التوقعات صالحة من23 الساعة 01 UTC إلى 24 الساعة 07 UTC
ريح 6 عقدة من الغرب
الرؤية 10 كم أو أكثر
ملبد بالغيوم على ارتفاع 500 قدم
مؤقت
من 23 الساعة 01 UTC إلى 23 الساعة 13 UTC
الرؤية: 0400 متر
على ارتفاع 100 قدم
ضباب مجمِّد
أصبح
من 23 الساعة 13 UTC إلى 23 الساعة 14 UTC
ريح 6 عقدة من الجنوب الشرقي
الرؤية: 2509 متر
غيوم مفككة على ارتفاع 800 قدم

TAF: BGTL 230100Z 2301/2407 28006KT 9999 OVC005 QNH2955INS TEMPO 2301/2313 0400 FZFG VV001 620101 BECMG 2313/2314 32006KT 9999 BKN008 QNH2950INS WND 14006KT AFT 2401 TX01/2319Z TNM02/2307Z LAST NO AMDS AFT 2301 NEXT 2509

أرصاد الطقس والتوقعات من أكثر من 4000 مطار (تقارير الطقس للمطار METAR والتنبؤ بالطقس بالمطارTAF).

المحطات المتاحة هي النقط الصفراء والحمراء على الخريطة.

حرك المؤشر فوق النقطة لمعرفة اسم المحطة.

ثم انقر لمعرفة أرصاد وتوقعات الطقس.

لتغيير الخارطة: اضغط على الأزرار الخضراء مع رمز الصليب الأسود للتكبير. على الزر الأخضر مع شرطة للتصغير، أو على الأسهم الخضراء للخرائط المجاورة.


METAR-TAF: